createdAt,value
2022-11-05T00:01:03.520Z,2.10
2022-11-05T00:03:23.690Z,2.00
2022-11-05T00:05:43.961Z,2.25
2022-11-05T00:08:08.321Z,2.65
2022-11-05T00:10:22.220Z,2.00
2022-11-05T00:12:42.115Z,3.03
2022-11-05T00:15:02.274Z,2.65
2022-11-05T00:17:03.837Z,2.35
2022-11-05T00:19:08.891Z,2.55
2022-11-05T00:21:30.703Z,3.67
2022-11-05T00:23:50.838Z,2.17
2022-11-05T00:26:03.957Z,2.92
2022-11-05T00:28:05.518Z,3.53
2022-11-05T00:30:07.902Z,3.28
2022-11-05T00:32:11.217Z,2.08
2022-11-05T00:34:12.723Z,3.22
2022-11-05T00:36:14.248Z,1.95
2022-11-05T00:38:15.838Z,3.13
2022-11-05T00:40:17.511Z,4.30
2022-11-05T00:42:37.699Z,3.42
2022-11-05T00:45:02.530Z,4.00
2022-11-05T00:47:22.691Z,3.42
2022-11-05T00:49:30.083Z,3.25
2022-11-05T00:51:31.747Z,3.13
2022-11-05T00:53:33.279Z,2.83
2022-11-05T00:55:42.454Z,4.22
2022-11-05T00:57:43.994Z,2.35
2022-11-05T00:59:45.469Z,2.40
2022-11-05T01:01:47.257Z,2.95
2022-11-05T01:03:51.655Z,2.70
2022-11-05T01:05:56.782Z,2.72
2022-11-05T01:07:58.899Z,2.03
2022-11-05T01:10:00.316Z,2.60
2022-11-05T01:12:01.858Z,3.35
2022-11-05T01:14:09.736Z,2.20
2022-11-05T01:16:11.281Z,2.65
2022-11-05T01:18:13.073Z,3.10
2022-11-05T01:20:14.793Z,3.80
2022-11-05T01:22:16.353Z,2.53
2022-11-05T01:24:17.803Z,2.45
2022-11-05T01:26:19.436Z,3.22
2022-11-05T01:28:21.087Z,3.63
2022-11-05T01:30:23.562Z,2.83
2022-11-05T01:32:25.035Z,3.38
2022-11-05T01:34:26.625Z,2.50
2022-11-05T01:36:28.055Z,3.58
2022-11-05T01:38:29.606Z,3.92
2022-11-05T01:40:31.127Z,3.13
2022-11-05T01:42:33.415Z,2.47
2022-11-05T01:44:53.824Z,2.38
2022-11-05T01:46:55.401Z,2.70
2022-11-05T01:49:05.421Z,3.13
2022-11-05T01:51:09.941Z,2.40
2022-11-05T01:53:18.644Z,2.08
2022-11-05T01:55:26.287Z,1.83
2022-11-05T01:57:29.095Z,2.58
2022-11-05T01:59:37.819Z,2.60
2022-11-05T02:01:39.600Z,1.67
2022-11-05T02:03:42.874Z,1.80
2022-11-05T02:05:46.394Z,3.28
2022-11-05T02:07:48.962Z,2.75
2022-11-05T02:10:02.669Z,1.52
2022-11-05T02:12:04.473Z,2.25
2022-11-05T02:14:06.224Z,2.13
2022-11-05T02:16:19.555Z,1.30
2022-11-05T02:18:32.860Z,2.60
2022-11-05T02:20:45.700Z,1.85
2022-11-05T02:23:09.952Z,2.28
2022-11-05T02:25:48.896Z,1.77
2022-11-05T02:28:08.836Z,2.20
2022-11-05T02:30:26.276Z,2.60
2022-11-05T02:32:46.362Z,2.00
2022-11-05T02:35:11.900Z,1.67
2022-11-05T02:37:25.228Z,2.97
2022-11-05T02:39:59.438Z,1.98
2022-11-05T02:42:29.150Z,2.17
2022-11-05T02:44:55.894Z,1.65
2022-11-05T02:47:18.270Z,1.65
2022-11-05T02:49:22.778Z,2.45
2022-11-05T02:51:33.526Z,1.95
2022-11-05T02:53:58.327Z,1.77
2022-11-05T02:56:21.370Z,2.53
2022-11-05T02:58:22.938Z,2.25
2022-11-05T03:00:39.782Z,2.58
2022-11-05T03:02:41.546Z,2.67
2022-11-05T03:04:43.271Z,1.80
2022-11-05T03:06:56.127Z,1.60
2022-11-05T03:09:21.578Z,1.35
2022-11-05T03:11:26.718Z,3.35
2022-11-05T03:13:41.984Z,3.55
2022-11-05T03:16:02.558Z,2.65
2022-11-05T03:18:14.807Z,1.70
2022-11-05T03:20:21.632Z,2.50
2022-11-05T03:22:30.676Z,2.63
2022-11-05T03:24:35.623Z,2.25
2022-11-05T03:26:55.446Z,2.10
2022-11-05T03:29:02.480Z,2.75
2022-11-05T03:31:06.834Z,3.63
2022-11-05T03:33:31.421Z,2.30
2022-11-05T03:35:38.314Z,2.67
2022-11-05T03:37:43.074Z,3.15
2022-11-05T03:39:50.843Z,3.35
2022-11-05T03:41:54.042Z,2.53
2022-11-05T03:43:59.367Z,2.60
2022-11-05T03:46:16.025Z,3.97
2022-11-05T03:48:20.543Z,2.65
2022-11-05T03:50:40.922Z,2.33
2022-11-05T03:52:52.467Z,3.05
2022-11-05T03:54:54.121Z,3.15
2022-11-05T03:56:58.372Z,2.97
2022-11-05T03:59:01.919Z,3.00
2022-11-05T04:01:04.116Z,1.95
2022-11-05T04:03:05.738Z,3.40
2022-11-05T04:05:07.445Z,2.88
2022-11-05T04:07:28.526Z,2.72
2022-11-05T04:09:48.911Z,3.20
2022-11-05T04:12:09.181Z,3.45
2022-11-05T04:14:10.727Z,2.53
2022-11-05T04:16:30.697Z,2.17
2022-11-05T04:18:32.161Z,2.80
2022-11-05T04:20:52.410Z,2.25
2022-11-05T04:23:20.660Z,2.22
2022-11-05T04:25:22.687Z,3.35
2022-11-05T04:27:24.419Z,2.20
2022-11-05T04:29:52.069Z,2.20
2022-11-05T04:31:54.051Z,3.00
2022-11-05T04:33:55.651Z,2.17
2022-11-05T04:35:57.183Z,3.72
2022-11-05T04:37:58.693Z,2.35
2022-11-05T04:40:00.295Z,1.98
2022-11-05T04:42:01.719Z,2.67
2022-11-05T04:44:03.367Z,2.75
2022-11-05T04:46:05.027Z,2.58
2022-11-05T04:48:06.690Z,1.90
2022-11-05T04:50:10.553Z,2.50
2022-11-05T04:52:12.049Z,2.83
2022-11-05T04:54:13.585Z,3.00
2022-11-05T04:56:19.176Z,2.35
2022-11-05T04:58:21.373Z,3.47
2022-11-05T05:00:23.962Z,2.20
2022-11-05T05:02:25.654Z,2.63
2022-11-05T05:04:27.351Z,2.30
2022-11-05T05:06:28.907Z,2.08
2022-11-05T05:08:30.400Z,3.00
2022-11-05T05:10:32.666Z,4.05
2022-11-05T05:12:36.279Z,2.22
2022-11-05T05:14:37.816Z,2.92
2022-11-05T05:16:39.350Z,2.05
2022-11-05T05:18:45.911Z,3.08
2022-11-05T05:21:06.234Z,2.65
2022-11-05T05:23:07.891Z,4.70
2022-11-05T05:25:09.717Z,1.90
2022-11-05T05:27:11.276Z,2.17
2022-11-05T05:29:13.581Z,2.30
2022-11-05T05:31:15.317Z,3.05
2022-11-05T05:33:16.823Z,3.22
2022-11-05T05:35:18.406Z,3.40
2022-11-05T05:37:19.990Z,3.90
2022-11-05T05:39:21.514Z,2.38
2022-11-05T05:41:23.297Z,2.85
2022-11-05T05:43:25.979Z,3.15
2022-11-05T05:45:27.487Z,3.47
2022-11-05T05:47:29.068Z,2.65
2022-11-05T05:49:30.565Z,3.03
2022-11-05T05:51:32.133Z,3.67
2022-11-05T05:53:34.433Z,2.35
2022-11-05T05:55:35.928Z,4.45
2022-11-05T05:57:37.496Z,3.50
2022-11-05T05:59:38.987Z,3.85
2022-11-05T06:01:40.696Z,2.83
2022-11-05T06:03:42.329Z,3.03
2022-11-05T06:05:43.948Z,4.10
2022-11-05T06:07:45.417Z,3.20
2022-11-05T06:09:46.994Z,2.97
2022-11-05T06:11:48.526Z,5.13
2022-11-05T06:13:50.162Z,2.47
2022-11-05T06:15:51.856Z,3.53
2022-11-05T06:17:53.288Z,2.58
2022-11-05T06:19:54.783Z,2.72
2022-11-05T06:21:56.339Z,2.35
2022-11-05T06:24:00.491Z,3.60
2022-11-05T06:26:03.535Z,6.13
2022-11-05T06:28:04.932Z,4.00
2022-11-05T06:30:07.081Z,4.97
2022-11-05T06:32:08.654Z,6.22
2022-11-05T06:34:10.283Z,4.78
2022-11-05T06:36:16.501Z,4.45
2022-11-05T06:38:18.100Z,4.03
2022-11-05T06:40:20.394Z,4.88
2022-11-05T06:42:21.928Z,3.75
2022-11-05T06:44:23.464Z,4.78
2022-11-05T06:46:25.041Z,3.00
2022-11-05T06:48:26.551Z,3.25
2022-11-05T06:50:28.786Z,3.97
2022-11-05T06:52:31.258Z,3.92
2022-11-05T06:54:33.184Z,3.63
2022-11-05T06:56:34.912Z,3.42
2022-11-05T06:58:36.894Z,3.30
2022-11-05T07:00:38.554Z,3.10
2022-11-05T07:02:40.348Z,3.42
2022-11-05T07:04:42.201Z,3.22
2022-11-05T07:06:43.771Z,4.07
2022-11-05T07:08:45.334Z,3.75
2022-11-05T07:10:47.171Z,4.45
2022-11-05T07:12:48.736Z,3.08
2022-11-05T07:14:50.352Z,3.30
2022-11-05T07:16:52.010Z,3.25
2022-11-05T07:18:55.786Z,3.55
2022-11-05T07:20:59.382Z,4.13
2022-11-05T07:23:12.471Z,4.78
2022-11-05T07:25:14.212Z,5.30
2022-11-05T07:27:16.475Z,4.47
2022-11-05T07:29:18.062Z,4.90
2022-11-05T07:31:19.588Z,5.18
2022-11-05T07:33:21.074Z,4.80
2022-11-05T07:35:22.706Z,5.63
2022-11-05T07:37:24.273Z,4.35
2022-11-05T07:39:25.923Z,4.20
2022-11-05T07:41:27.963Z,4.80
2022-11-05T07:43:29.483Z,3.83
2022-11-05T07:45:31.950Z,4.15
2022-11-05T07:47:33.425Z,5.28
2022-11-05T07:49:34.922Z,5.07
2022-11-05T07:51:36.495Z,5.15
2022-11-05T07:53:41.098Z,4.88
2022-11-05T07:55:46.659Z,5.28
2022-11-05T07:57:50.311Z,5.32
2022-11-05T07:59:51.837Z,7.00
2022-11-05T08:01:53.537Z,5.78
2022-11-05T08:03:55.279Z,4.97
2022-11-05T08:05:56.931Z,6.40
2022-11-05T08:07:58.464Z,7.00
2022-11-05T08:10:00.055Z,6.03
2022-11-05T08:12:03.196Z,6.63
2022-11-05T08:14:05.004Z,5.80
2022-11-05T08:16:07.693Z,8.98
2022-11-05T08:18:14.766Z,6.75
2022-11-05T08:20:16.741Z,6.25
2022-11-05T08:22:18.442Z,5.32
2022-11-05T08:24:19.914Z,6.03
2022-11-05T08:26:21.564Z,6.78
2022-11-05T08:28:24.373Z,6.15
2022-11-05T08:30:26.512Z,10.07
2022-11-05T08:32:27.991Z,7.07
2022-11-05T08:34:29.508Z,8.13
2022-11-05T08:36:31.085Z,9.30
2022-11-05T08:38:32.598Z,8.32
2022-11-05T08:40:36.323Z,7.65
2022-11-05T08:42:37.781Z,7.43
2022-11-05T08:44:39.260Z,7.90
2022-11-05T08:46:41.845Z,6.78
2022-11-05T08:48:43.459Z,8.60
2022-11-05T08:50:46.512Z,8.52
2022-11-05T08:52:47.989Z,7.97
2022-11-05T08:54:49.508Z,9.57
2022-11-05T08:56:51.144Z,9.68
2022-11-05T08:58:52.673Z,10.20
2022-11-05T09:00:54.606Z,9.93
2022-11-05T09:03:01.934Z,9.18
2022-11-05T09:05:03.692Z,7.82
2022-11-05T09:07:05.254Z,9.15
2022-11-05T09:09:06.659Z,12.32
2022-11-05T09:11:08.340Z,12.27
2022-11-05T09:13:16.594Z,11.15
2022-11-05T09:15:19.759Z,11.05
2022-11-05T09:17:21.753Z,8.50
2022-11-05T09:19:23.473Z,8.52
2022-11-05T09:21:24.948Z,11.30
2022-11-05T09:23:26.548Z,8.15
2022-11-05T09:25:28.193Z,8.27
2022-11-05T09:27:29.775Z,8.10
2022-11-05T09:29:31.357Z,10.18
2022-11-05T09:31:32.918Z,10.93
2022-11-05T09:33:36.541Z,8.38
2022-11-05T09:35:39.941Z,8.80
2022-11-05T09:37:41.564Z,8.60
2022-11-05T09:39:43.202Z,8.38
2022-11-05T09:41:45.941Z,8.23
2022-11-05T09:43:56.409Z,7.82
2022-11-05T09:46:02.833Z,7.63
2022-11-05T09:48:11.296Z,8.38
2022-11-05T09:50:30.413Z,9.18
2022-11-05T09:52:33.727Z,8.13
2022-11-05T09:54:35.362Z,9.20
2022-11-05T09:56:41.374Z,7.45
2022-11-05T09:58:54.515Z,9.05
2022-11-05T10:00:57.806Z,8.23
2022-11-05T10:03:05.195Z,8.80
2022-11-05T10:05:11.229Z,9.07
2022-11-05T10:07:18.596Z,9.05
2022-11-05T10:09:47.642Z,7.72
2022-11-05T10:11:58.086Z,6.70
2022-11-05T10:14:07.492Z,6.68
2022-11-05T10:16:21.068Z,7.85
2022-11-05T10:18:36.261Z,7.40
2022-11-05T10:20:39.105Z,7.13
2022-11-05T10:22:43.972Z,7.63
2022-11-05T10:24:51.146Z,7.15
2022-11-05T10:26:55.350Z,8.10
2022-11-05T10:28:57.091Z,6.35
2022-11-05T10:31:02.447Z,8.05
2022-11-05T10:33:06.803Z,7.38
2022-11-05T10:35:18.360Z,8.50
2022-11-05T10:37:23.355Z,6.28
2022-11-05T10:39:27.625Z,8.50
2022-11-05T10:41:34.689Z,8.68
2022-11-05T10:43:49.041Z,5.97
2022-11-05T10:45:54.322Z,6.72
2022-11-05T10:48:01.816Z,7.75
2022-11-05T10:50:21.379Z,7.13
2022-11-05T10:52:26.449Z,6.18
2022-11-05T10:54:33.692Z,5.15
2022-11-05T10:56:38.549Z,6.20
2022-11-05T10:58:57.681Z,6.45
2022-11-05T11:00:59.213Z,6.50
2022-11-05T11:03:03.948Z,4.53
2022-11-05T11:05:05.703Z,4.93
2022-11-05T11:07:21.765Z,6.65
2022-11-05T11:09:36.044Z,6.60
2022-11-05T11:11:42.836Z,6.28
2022-11-05T11:14:12.082Z,7.00
2022-11-05T11:16:17.034Z,5.88
2022-11-05T11:18:33.387Z,6.22
2022-11-05T11:20:44.932Z,5.95
2022-11-05T11:23:01.540Z,5.03
2022-11-05T11:25:22.948Z,8.48
2022-11-05T11:27:29.090Z,5.75
2022-11-05T11:29:35.947Z,5.80
2022-11-05T11:31:39.596Z,6.63
2022-11-05T11:33:44.500Z,5.55
2022-11-05T11:35:46.577Z,6.53
2022-11-05T11:37:51.481Z,8.35
2022-11-05T11:39:57.699Z,6.38
2022-11-05T11:42:05.987Z,5.88
2022-11-05T11:44:15.474Z,6.32
2022-11-05T11:46:19.997Z,5.82
2022-11-05T11:48:30.248Z,6.60
2022-11-05T11:50:46.760Z,6.50
2022-11-05T11:52:48.267Z,7.15
2022-11-05T11:54:50.726Z,7.22
2022-11-05T11:56:52.379Z,7.70
2022-11-05T11:58:55.922Z,8.70
2022-11-05T12:01:16.594Z,6.35
2022-11-05T12:03:31.380Z,7.28
2022-11-05T12:05:41.513Z,9.60
2022-11-05T12:07:53.873Z,9.05
2022-11-05T12:10:16.603Z,7.68
2022-11-05T12:12:26.107Z,6.90
2022-11-05T12:15:07.045Z,8.35
2022-11-05T12:17:38.185Z,6.95
2022-11-05T12:19:49.001Z,7.65
2022-11-05T12:21:59.066Z,7.15
2022-11-05T12:24:15.858Z,7.88
2022-11-05T12:26:23.434Z,9.63
2022-11-05T12:29:11.999Z,10.75
2022-11-05T12:31:26.295Z,14.65
2022-11-05T12:33:42.473Z,14.30
2022-11-05T12:36:02.916Z,12.32
2022-11-05T12:38:27.616Z,10.30
2022-11-05T12:40:50.880Z,9.07
2022-11-05T12:43:36.889Z,12.73
2022-11-05T12:45:51.632Z,17.00
2022-11-05T12:48:07.309Z,10.10
2022-11-05T12:50:22.236Z,9.65
2022-11-05T12:52:54.696Z,9.02
2022-11-05T12:55:15.138Z,7.85
2022-11-05T12:57:17.864Z,7.35
2022-11-05T12:59:25.337Z,6.45
2022-11-05T13:01:34.995Z,7.45
2022-11-05T13:03:47.795Z,6.30
2022-11-05T13:06:05.896Z,7.03
2022-11-05T13:08:18.817Z,7.53
2022-11-05T13:10:42.767Z,6.68
2022-11-05T13:12:48.410Z,9.77
2022-11-05T13:15:31.892Z,7.82
2022-11-05T13:17:58.322Z,9.27
2022-11-05T13:20:21.987Z,10.15
2022-11-05T13:22:50.799Z,9.95
2022-11-05T13:25:00.915Z,9.57
2022-11-05T13:27:21.691Z,8.57
2022-11-05T13:29:32.042Z,7.03
2022-11-05T13:31:38.644Z,6.72
2022-11-05T13:33:44.153Z,7.93
2022-11-05T13:36:14.687Z,8.63
2022-11-05T13:38:45.386Z,7.78
2022-11-05T13:40:58.645Z,7.03
2022-11-05T13:43:03.508Z,5.90
2022-11-05T13:45:17.068Z,7.07
2022-11-05T13:47:37.487Z,5.90
2022-11-05T13:49:46.382Z,4.97
2022-11-05T13:52:09.536Z,7.85
2022-11-05T13:55:09.393Z,6.55
2022-11-05T13:57:46.314Z,4.88
2022-11-05T14:00:03.303Z,5.30
2022-11-05T14:02:20.896Z,6.88
2022-11-05T14:04:30.894Z,7.55
2022-11-05T14:06:36.124Z,6.85
2022-11-05T14:08:45.101Z,7.60
2022-11-05T14:11:07.154Z,8.18
2022-11-05T14:13:26.697Z,7.38
2022-11-05T14:15:30.930Z,6.43
2022-11-05T14:17:53.141Z,6.20
2022-11-05T14:20:04.511Z,5.50
2022-11-05T14:22:29.625Z,5.35
2022-11-05T14:24:37.361Z,6.43
2022-11-05T14:26:38.875Z,8.23
2022-11-05T14:28:44.344Z,7.82
2022-11-05T14:30:47.254Z,5.65
2022-11-05T14:32:50.906Z,5.65
2022-11-05T14:35:37.854Z,7.88
2022-11-05T14:37:59.286Z,5.40
2022-11-05T14:40:39.221Z,5.13
2022-11-05T14:42:49.847Z,5.88
2022-11-05T14:45:03.222Z,6.40
2022-11-05T14:47:19.834Z,5.13
2022-11-05T14:49:26.657Z,7.57
2022-11-05T14:51:43.987Z,5.90
2022-11-05T14:53:45.593Z,7.38
2022-11-05T14:55:47.298Z,6.88
2022-11-05T14:57:54.685Z,6.75
2022-11-05T14:59:58.352Z,6.00
2022-11-05T15:02:18.050Z,5.88
2022-11-05T15:04:30.240Z,7.93
2022-11-05T15:06:36.595Z,8.00
2022-11-05T15:09:07.161Z,8.45
2022-11-05T15:11:15.112Z,6.88
2022-11-05T15:13:31.190Z,8.98
2022-11-05T15:15:42.486Z,7.05
2022-11-05T15:18:26.639Z,6.20
2022-11-05T15:20:47.974Z,7.57
2022-11-05T15:22:56.778Z,5.63
2022-11-05T15:24:59.176Z,6.50
2022-11-05T15:27:12.459Z,7.30
2022-11-05T15:29:19.659Z,6.18
2022-11-05T15:31:21.180Z,6.07
2022-11-05T15:33:23.277Z,7.47
2022-11-05T15:35:27.936Z,7.68
2022-11-05T15:37:29.509Z,7.00
2022-11-05T15:39:43.616Z,6.75
2022-11-05T15:41:45.515Z,6.55
2022-11-05T15:43:49.115Z,6.75
2022-11-05T15:46:08.396Z,5.82
2022-11-05T15:48:15.870Z,6.55
2022-11-05T15:50:17.806Z,7.13
2022-11-05T15:52:22.514Z,6.50
2022-11-05T15:54:30.145Z,6.53
2022-11-05T15:56:48.014Z,9.52
2022-11-05T15:58:52.958Z,6.40
2022-11-05T16:00:54.632Z,8.10
2022-11-05T16:03:16.979Z,7.80
2022-11-05T16:05:18.652Z,5.70
2022-11-05T16:07:21.158Z,7.13
2022-11-05T16:09:27.160Z,7.63
2022-11-05T16:11:28.864Z,7.80
2022-11-05T16:13:34.887Z,6.80
2022-11-05T16:15:36.714Z,7.15
2022-11-05T16:17:54.750Z,6.60
2022-11-05T16:19:56.891Z,7.63
2022-11-05T16:22:02.688Z,7.28
2022-11-05T16:24:04.656Z,8.63
2022-11-05T16:27:01.956Z,8.07
2022-11-05T16:29:20.677Z,7.60
2022-11-05T16:31:24.738Z,7.55
2022-11-05T16:33:32.880Z,7.50
2022-11-05T16:35:40.080Z,7.35
2022-11-05T16:37:46.437Z,8.05
2022-11-05T16:39:51.699Z,8.48
2022-11-05T16:41:53.399Z,6.95
2022-11-05T16:43:57.220Z,7.22
2022-11-05T16:46:00.104Z,6.78
2022-11-05T16:48:01.630Z,8.15
2022-11-05T16:50:13.315Z,8.43
2022-11-05T16:52:15.196Z,8.13
2022-11-05T16:54:16.763Z,8.57
2022-11-05T16:56:21.451Z,7.93
2022-11-05T16:58:25.141Z,10.10
2022-11-05T17:00:26.763Z,10.48
2022-11-05T17:02:28.850Z,9.02
2022-11-05T17:04:30.509Z,9.40
2022-11-05T17:06:32.154Z,7.72
2022-11-05T17:08:34.847Z,7.85
2022-11-05T17:10:36.481Z,6.43
2022-11-05T17:12:38.113Z,8.02
2022-11-05T17:14:39.768Z,7.55
2022-11-05T17:16:41.714Z,8.43
2022-11-05T17:18:44.119Z,6.60
2022-11-05T17:20:51.235Z,7.43
2022-11-05T17:22:53.052Z,7.40
2022-11-05T17:24:54.466Z,7.25
2022-11-05T17:26:56.051Z,7.93
2022-11-05T17:28:57.579Z,9.65
2022-11-05T17:31:00.386Z,7.35
2022-11-05T17:33:02.041Z,7.90
2022-11-05T17:35:04.048Z,8.13
2022-11-05T17:37:05.498Z,7.40
2022-11-05T17:39:07.370Z,8.02
2022-11-05T17:41:14.212Z,7.95
2022-11-05T17:43:16.131Z,9.48
2022-11-05T17:45:18.504Z,7.68
2022-11-05T17:47:20.058Z,8.40
2022-11-05T17:49:21.591Z,7.35
2022-11-05T17:51:23.219Z,8.23
2022-11-05T17:53:24.807Z,10.27
2022-11-05T17:55:26.571Z,9.35
2022-11-05T17:57:28.515Z,8.13
2022-11-05T17:59:30.739Z,7.45
2022-11-05T18:01:35.571Z,9.27
2022-11-05T18:03:37.245Z,8.65
2022-11-05T18:05:40.155Z,11.02
2022-11-05T18:07:41.980Z,6.95
2022-11-05T18:09:43.839Z,7.80
2022-11-05T18:11:45.726Z,7.18
2022-11-05T18:13:47.220Z,6.88
2022-11-05T18:15:52.391Z,6.53
2022-11-05T18:17:53.918Z,8.13
2022-11-05T18:19:55.538Z,9.02
2022-11-05T18:21:57.014Z,8.50
2022-11-05T18:23:58.609Z,7.60
2022-11-05T18:26:00.206Z,8.10
2022-11-05T18:28:03.112Z,10.15
2022-11-05T18:30:05.234Z,8.25
2022-11-05T18:32:06.966Z,7.43
2022-11-05T18:34:10.331Z,7.85
2022-11-05T18:36:19.413Z,8.63
2022-11-05T18:38:21.048Z,8.63
2022-11-05T18:40:22.665Z,6.10
2022-11-05T18:42:25.225Z,8.60
2022-11-05T18:44:26.903Z,8.32
2022-11-05T18:46:56.437Z,7.35
2022-11-05T18:48:51.666Z,8.35
2022-11-05T18:50:56.494Z,6.53
2022-11-05T18:53:00.510Z,7.50
2022-11-05T18:55:02.087Z,7.70
2022-11-05T18:57:03.701Z,7.15
2022-11-05T18:59:34.571Z,6.25
2022-11-05T19:01:28.521Z,6.90
2022-11-05T19:03:30.057Z,7.38
2022-11-05T19:05:31.659Z,7.18
2022-11-05T19:07:36.914Z,7.18
2022-11-05T19:09:40.210Z,6.00
2022-11-05T19:11:41.821Z,7.70
2022-11-05T19:13:44.022Z,6.78
2022-11-05T19:15:45.768Z,7.85
2022-11-05T19:17:47.235Z,8.10
2022-11-05T19:19:48.725Z,8.07
2022-11-05T19:21:51.378Z,10.95
2022-11-05T19:23:53.619Z,8.68
2022-11-05T19:25:55.259Z,10.73
2022-11-05T19:27:58.513Z,7.95
2022-11-05T19:29:59.977Z,8.40
2022-11-05T19:32:01.543Z,8.60
2022-11-05T19:34:03.307Z,8.18
2022-11-05T19:36:06.510Z,8.38
2022-11-05T19:38:08.027Z,7.55
2022-11-05T19:40:10.708Z,8.35
2022-11-05T19:42:12.611Z,8.23
2022-11-05T19:44:14.113Z,8.93
2022-11-05T19:46:18.584Z,8.45
2022-11-05T19:48:21.054Z,8.07
2022-11-05T19:50:22.831Z,9.80
2022-11-05T19:52:24.309Z,9.02
2022-11-05T19:54:25.993Z,8.55
2022-11-05T19:56:30.448Z,9.00
2022-11-05T19:58:32.023Z,9.13
2022-11-05T20:00:35.023Z,9.18
2022-11-05T20:02:36.624Z,7.68
2022-11-05T20:04:38.218Z,8.07
2022-11-05T20:06:40.876Z,10.10
2022-11-05T20:09:07.143Z,7.60
2022-11-05T20:11:06.435Z,6.80
2022-11-05T20:13:07.938Z,8.43
2022-11-05T20:15:09.819Z,7.95
2022-11-05T20:17:11.457Z,7.85
2022-11-05T20:19:15.498Z,9.00
2022-11-05T20:21:17.806Z,13.10
2022-11-05T20:23:19.496Z,12.75
2022-11-05T20:25:21.171Z,12.30
2022-11-05T20:27:22.952Z,11.57
2022-11-05T20:29:29.016Z,9.63
2022-11-05T20:31:31.158Z,10.10
2022-11-05T20:33:32.656Z,8.30
2022-11-05T20:35:34.173Z,8.25
2022-11-05T20:37:35.660Z,9.63
2022-11-05T20:39:37.114Z,8.30
2022-11-05T20:41:38.797Z,10.65
2022-11-05T20:43:41.128Z,7.80
2022-11-05T20:45:42.674Z,8.82
2022-11-05T20:47:44.387Z,8.30
2022-11-05T20:49:45.857Z,8.13
2022-11-05T20:51:47.444Z,9.23
2022-11-05T20:53:49.416Z,7.65
2022-11-05T20:55:50.966Z,8.45
2022-11-05T20:57:52.540Z,11.73
2022-11-05T20:59:54.356Z,10.02
2022-11-05T21:01:56.040Z,10.02
2022-11-05T21:03:57.917Z,9.30
2022-11-05T21:06:04.149Z,10.23
2022-11-05T21:08:05.907Z,9.32
2022-11-05T21:10:07.594Z,9.73
2022-11-05T21:12:12.086Z,8.77
2022-11-05T21:14:13.708Z,10.23
2022-11-05T21:16:18.524Z,11.80
2022-11-05T21:18:22.023Z,12.35
2022-11-05T21:20:23.587Z,12.35
2022-11-05T21:22:25.516Z,11.32
2022-11-05T21:24:27.383Z,10.27
2022-11-05T21:26:30.949Z,9.50
2022-11-05T21:28:33.363Z,9.85
2022-11-05T21:30:37.595Z,7.43
2022-11-05T21:32:39.221Z,9.25
2022-11-05T21:34:40.723Z,8.68
2022-11-05T21:36:42.315Z,9.98
2022-11-05T21:38:43.859Z,7.57
2022-11-05T21:40:46.137Z,7.95
2022-11-05T21:42:47.670Z,10.13
2022-11-05T21:44:49.242Z,7.43
2022-11-05T21:46:52.503Z,8.60
2022-11-05T21:48:53.902Z,8.07
2022-11-05T21:51:14.104Z,7.72
2022-11-05T21:53:35.795Z,6.70
2022-11-05T21:55:59.179Z,8.18
2022-11-05T21:58:24.814Z,7.07
2022-11-05T22:00:26.390Z,9.65
2022-11-05T22:02:30.968Z,8.27
2022-11-05T22:04:46.877Z,8.80
2022-11-05T22:06:48.434Z,7.45
2022-11-05T22:08:49.936Z,8.18
2022-11-05T22:10:51.563Z,9.38
2022-11-05T22:12:53.071Z,10.15
2022-11-05T22:14:55.076Z,11.27
2022-11-05T22:16:57.443Z,9.05
2022-11-05T22:18:59.495Z,10.80
2022-11-05T22:21:01.122Z,10.43
2022-11-05T22:23:05.371Z,11.80
2022-11-05T22:25:10.259Z,10.32
2022-11-05T22:27:17.302Z,9.40
2022-11-05T22:29:19.132Z,9.55
2022-11-05T22:31:21.001Z,9.45
2022-11-05T22:33:22.702Z,6.65
2022-11-05T22:35:24.293Z,6.40
2022-11-05T22:37:25.801Z,7.88
2022-11-05T22:39:27.381Z,8.88
2022-11-05T22:41:29.039Z,8.32
2022-11-05T22:43:32.319Z,8.20
2022-11-05T22:45:36.844Z,8.23
2022-11-05T22:47:41.468Z,8.60
2022-11-05T22:49:43.104Z,7.63
2022-11-05T22:51:45.506Z,6.95
2022-11-05T22:53:47.250Z,7.70
2022-11-05T22:55:48.846Z,8.50
2022-11-05T22:57:50.304Z,8.50
2022-11-05T22:59:52.099Z,9.23
2022-11-05T23:01:53.799Z,9.15
2022-11-05T23:03:56.966Z,7.40
2022-11-05T23:06:04.274Z,8.98
2022-11-05T23:08:38.042Z,7.75
2022-11-05T23:10:58.588Z,7.72
2022-11-05T23:13:00.094Z,10.35
2022-11-05T23:15:05.536Z,7.70
2022-11-05T23:17:27.417Z,9.60
2022-11-05T23:19:48.322Z,8.30
2022-11-05T23:22:08.543Z,8.88
2022-11-05T23:24:13.005Z,9.38
2022-11-05T23:26:32.974Z,9.23
2022-11-05T23:28:34.461Z,8.55
2022-11-05T23:30:58.202Z,8.02
2022-11-05T23:32:59.689Z,9.75
2022-11-05T23:35:01.337Z,11.15
2022-11-05T23:37:21.697Z,9.88
2022-11-05T23:39:23.161Z,8.80
2022-11-05T23:41:43.331Z,10.40
2022-11-05T23:44:03.527Z,8.52
2022-11-05T23:46:23.809Z,10.43
2022-11-05T23:48:35.483Z,9.63
2022-11-05T23:50:40.048Z,9.45
2022-11-05T23:52:41.792Z,8.95
2022-11-05T23:54:43.314Z,10.35
2022-11-05T23:56:45.869Z,9.02
2022-11-05T23:58:47.363Z,9.27
